MAC420B GMMN-GMAD
Flight info
| Callsign | MAC420B |
|---|---|
| Flight time | 0h 44m |
| Altitude | 29000 |
| Route | CSD UR975 EKTAL |
| Aircraft | A20N/M-SDE2E3FGHIRWXY/LB1 |
Departure
| Time | 2026-04-25 13:42 |
|---|---|
| Airport | Mohammed V International Airport (GMMN) |
Arrival
| Time | 2026-04-25 14:26 |
|---|---|
| Airport | Al Massira Airport (GMAD) |
| Time | Latitude | Longitude | Altitude | Speed | Heading |
|---|---|---|---|---|---|
| 2026-04-25 13:14 | 33.37563 | -7.58333 | 655 ft | 0 kts | 78° |
| 2026-04-25 13:31 | 33.37560 | -7.58351 | 657 ft | 2 kts | 78° |
| 2026-04-25 13:31 | 33.37557 | -7.58370 | 655 ft | 2 kts | 79° |
| 2026-04-25 13:31 | 33.37553 | -7.58389 | 653 ft | 2 kts | 68° |
| 2026-04-25 13:32 | 33.37544 | -7.58405 | 656 ft | 2 kts | 26° |
| 2026-04-25 13:32 | 33.37528 | -7.58410 | 655 ft | 2 kts | 358° |
| 2026-04-25 13:32 | 33.37520 | -7.58409 | 654 ft | 0 kts | 349° |
| 2026-04-25 13:36 | 33.37532 | -7.58413 | 654 ft | 3 kts | 347° |
| 2026-04-25 13:36 | 33.37562 | -7.58423 | 655 ft | 6 kts | 342° |
| 2026-04-25 13:37 | 33.37608 | -7.58436 | 653 ft | 8 kts | 352° |
| 2026-04-25 13:37 | 33.37669 | -7.58442 | 653 ft | 10 kts | 348° |
| 2026-04-25 13:37 | 33.37737 | -7.58464 | 653 ft | 11 kts | 345° |
| 2026-04-25 13:37 | 33.37812 | -7.58503 | 655 ft | 12 kts | 323° |
| 2026-04-25 13:38 | 33.37869 | -7.58589 | 654 ft | 14 kts | 306° |
| 2026-04-25 13:38 | 33.37910 | -7.58701 | 652 ft | 16 kts | 261° |
| 2026-04-25 13:38 | 33.37899 | -7.58813 | 652 ft | 11 kts | 304° |
| 2026-04-25 13:38 | 33.37972 | -7.58847 | 654 ft | 12 kts | 347° |
| 2026-04-25 13:39 | 33.38059 | -7.58877 | 654 ft | 14 kts | 344° |
| 2026-04-25 13:39 | 33.38157 | -7.58911 | 652 ft | 15 kts | 343° |
| 2026-04-25 13:39 | 33.38263 | -7.58947 | 654 ft | 16 kts | 345° |
| 2026-04-25 13:39 | 33.38373 | -7.58985 | 653 ft | 17 kts | 343° |
| 2026-04-25 13:40 | 33.38436 | -7.59014 | 654 ft | 12 kts | 325° |
| 2026-04-25 13:40 | 33.38443 | -7.59136 | 653 ft | 14 kts | 258° |
| 2026-04-25 13:40 | 33.38415 | -7.59255 | 652 ft | 12 kts | 252° |
| 2026-04-25 13:40 | 33.38400 | -7.59315 | 652 ft | 6 kts | 252° |
| 2026-04-25 13:41 | 33.38388 | -7.59341 | 653 ft | 3 kts | 225° |
| 2026-04-25 13:41 | 33.38357 | -7.59342 | 651 ft | 1 kts | 166° |
| 2026-04-25 13:42 | 33.38174 | -7.59277 | 648 ft | 65 kts | 163° |
| 2026-04-25 13:42 | 33.37519 | -7.59052 | 650 ft | 129 kts | 163° |
| 2026-04-25 13:42 | 33.36490 | -7.58698 | 682 ft | 173 kts | 162° |
| 2026-04-25 13:42 | 33.35374 | -7.58325 | 1321 ft | 163 kts | 161° |
| 2026-04-25 13:43 | 33.34279 | -7.57959 | 1870 ft | 164 kts | 160° |
| 2026-04-25 13:43 | 33.33174 | -7.57597 | 2433 ft | 167 kts | 160° |
| 2026-04-25 13:43 | 33.32015 | -7.57177 | 2775 ft | 184 kts | 159° |
| 2026-04-25 13:43 | 33.30725 | -7.56696 | 3168 ft | 203 kts | 159° |
| 2026-04-25 13:44 | 33.29307 | -7.56162 | 3655 ft | 220 kts | 159° |
| 2026-04-25 13:44 | 33.27788 | -7.55647 | 4197 ft | 242 kts | 169° |
| 2026-04-25 13:44 | 33.26028 | -7.55857 | 4707 ft | 272 kts | 199° |
| 2026-04-25 13:44 | 33.24392 | -7.57122 | 5488 ft | 288 kts | 222° |
| 2026-04-25 13:45 | 33.22997 | -7.58906 | 6422 ft | 295 kts | 227° |
| 2026-04-25 13:45 | 33.21680 | -7.60707 | 7656 ft | 288 kts | 227° |
| 2026-04-25 13:45 | 33.20317 | -7.62467 | 8739 ft | 289 kts | 225° |
| 2026-04-25 13:45 | 33.18885 | -7.64204 | 9403 ft | 295 kts | 224° |
| 2026-04-25 13:46 | 33.17429 | -7.65892 | 9742 ft | 295 kts | 223° |
| 2026-04-25 13:46 | 33.15933 | -7.67592 | 9908 ft | 296 kts | 223° |
| 2026-04-25 13:46 | 33.14426 | -7.69291 | 10010 ft | 298 kts | 223° |
| 2026-04-25 13:46 | 33.12896 | -7.71014 | 10134 ft | 316 kts | 223° |
| 2026-04-25 13:47 | 33.11223 | -7.72901 | 10476 ft | 339 kts | 223° |
| 2026-04-25 13:47 | 33.09502 | -7.74843 | 11193 ft | 347 kts | 223° |
| 2026-04-25 13:47 | 33.07738 | -7.76835 | 12088 ft | 351 kts | 223° |
| 2026-04-25 13:47 | 33.05950 | -7.78853 | 12949 ft | 356 kts | 223° |
| 2026-04-25 13:48 | 33.04129 | -7.80907 | 13784 ft | 361 kts | 223° |
| 2026-04-25 13:48 | 33.02310 | -7.82957 | 14521 ft | 366 kts | 224° |
| 2026-04-25 13:48 | 33.00440 | -7.85062 | 15228 ft | 371 kts | 224° |
| 2026-04-25 13:48 | 32.98538 | -7.87200 | 15896 ft | 378 kts | 224° |
| 2026-04-25 13:49 | 32.96617 | -7.89360 | 16524 ft | 385 kts | 224° |
| 2026-04-25 13:49 | 32.94651 | -7.91569 | 17358 ft | 386 kts | 224° |
| 2026-04-25 13:49 | 32.92697 | -7.93764 | 18025 ft | 393 kts | 225° |
| 2026-04-25 13:49 | 32.90672 | -7.96039 | 18562 ft | 401 kts | 225° |
| 2026-04-25 13:50 | 32.88674 | -7.98280 | 19385 ft | 396 kts | 225° |
| 2026-04-25 13:50 | 32.86653 | -8.00545 | 20123 ft | 398 kts | 226° |
| 2026-04-25 13:50 | 32.84618 | -8.02827 | 20779 ft | 401 kts | 225° |
| 2026-04-25 13:50 | 32.82608 | -8.05083 | 21512 ft | 401 kts | 225° |
| 2026-04-25 13:51 | 32.80563 | -8.07373 | 22190 ft | 403 kts | 225° |
| 2026-04-25 13:51 | 32.78532 | -8.09646 | 22866 ft | 405 kts | 225° |
| 2026-04-25 13:51 | 32.77157 | -8.11184 | 23285 ft | 407 kts | 225° |
| 2026-04-25 13:51 | 32.74339 | -8.14211 | 24026 ft | 412 kts | 220° |
| 2026-04-25 13:52 | 32.72783 | -8.15547 | 24401 ft | 414 kts | 215° |
| 2026-04-25 13:52 | 32.70255 | -8.17249 | 24905 ft | 419 kts | 208° |
| 2026-04-25 13:52 | 32.67570 | -8.18566 | 25395 ft | 423 kts | 203° |
| 2026-04-25 13:52 | 32.64807 | -8.19831 | 25916 ft | 425 kts | 204° |
| 2026-04-25 13:53 | 32.62029 | -8.21118 | 26388 ft | 428 kts | 203° |
| 2026-04-25 13:53 | 32.59245 | -8.22413 | 26857 ft | 430 kts | 204° |
| 2026-04-25 13:53 | 32.56482 | -8.23699 | 27328 ft | 432 kts | 204° |
| 2026-04-25 13:53 | 32.53658 | -8.25013 | 27772 ft | 435 kts | 204° |
| 2026-04-25 13:54 | 32.50844 | -8.26320 | 28189 ft | 438 kts | 204° |
| 2026-04-25 13:54 | 32.48006 | -8.27637 | 28620 ft | 440 kts | 204° |
| 2026-04-25 13:54 | 32.45141 | -8.28966 | 28872 ft | 442 kts | 203° |
| 2026-04-25 13:55 | 32.39406 | -8.31621 | 28942 ft | 442 kts | 203° |
| 2026-04-25 13:55 | 32.33691 | -8.34264 | 28930 ft | 442 kts | 203° |
| 2026-04-25 13:56 | 32.27937 | -8.36925 | 28941 ft | 442 kts | 203° |
| 2026-04-25 13:56 | 32.22212 | -8.39566 | 28940 ft | 442 kts | 203° |
| 2026-04-25 13:57 | 32.16491 | -8.42202 | 28937 ft | 442 kts | 203° |
| 2026-04-25 13:57 | 32.10733 | -8.44850 | 28933 ft | 442 kts | 203° |
| 2026-04-25 13:58 | 32.05171 | -8.47872 | 28934 ft | 441 kts | 207° |
| 2026-04-25 13:58 | 31.99672 | -8.51024 | 28935 ft | 441 kts | 207° |
| 2026-04-25 13:59 | 31.94156 | -8.54171 | 28932 ft | 441 kts | 207° |
| 2026-04-25 13:59 | 31.88605 | -8.57332 | 28928 ft | 441 kts | 207° |
| 2026-04-25 14:00 | 31.83109 | -8.60459 | 28641 ft | 440 kts | 207° |
| 2026-04-25 14:00 | 31.80349 | -8.62027 | 28376 ft | 437 kts | 207° |
| 2026-04-25 14:00 | 31.77608 | -8.63583 | 28108 ft | 436 kts | 207° |
| 2026-04-25 14:00 | 31.74864 | -8.65141 | 27849 ft | 435 kts | 207° |
| 2026-04-25 14:01 | 31.72176 | -8.66666 | 27593 ft | 433 kts | 207° |
| 2026-04-25 14:01 | 31.69457 | -8.68208 | 27170 ft | 433 kts | 207° |
| 2026-04-25 14:01 | 31.66727 | -8.69754 | 26588 ft | 432 kts | 207° |
| 2026-04-25 14:01 | 31.64054 | -8.71267 | 26020 ft | 428 kts | 207° |
| 2026-04-25 14:02 | 31.61375 | -8.72782 | 25439 ft | 424 kts | 207° |
| 2026-04-25 14:02 | 31.58715 | -8.74284 | 24842 ft | 421 kts | 207° |
| 2026-04-25 14:02 | 31.56122 | -8.75750 | 24299 ft | 417 kts | 207° |
| 2026-04-25 14:02 | 31.54355 | -8.76748 | 23882 ft | 415 kts | 207° |
| 2026-04-25 14:03 | 31.50912 | -8.78667 | 23104 ft | 411 kts | 205° |
| 2026-04-25 14:03 | 31.48307 | -8.79984 | 22689 ft | 402 kts | 204° |
| 2026-04-25 14:03 | 31.45740 | -8.81235 | 22427 ft | 400 kts | 204° |
| 2026-04-25 14:03 | 31.43189 | -8.82481 | 22176 ft | 402 kts | 204° |
| 2026-04-25 14:04 | 31.40602 | -8.83756 | 21915 ft | 401 kts | 204° |
| 2026-04-25 14:04 | 31.38031 | -8.85033 | 21661 ft | 400 kts | 204° |
| 2026-04-25 14:04 | 31.35493 | -8.86297 | 21410 ft | 397 kts | 205° |
| 2026-04-25 14:04 | 31.32953 | -8.87563 | 21159 ft | 395 kts | 205° |
| 2026-04-25 14:05 | 31.30420 | -8.88829 | 20912 ft | 395 kts | 204° |
| 2026-04-25 14:05 | 31.27888 | -8.90091 | 20660 ft | 394 kts | 205° |
| 2026-04-25 14:05 | 31.25412 | -8.91323 | 20426 ft | 391 kts | 204° |
| 2026-04-25 14:05 | 31.22899 | -8.92575 | 20185 ft | 391 kts | 204° |
| 2026-04-25 14:06 | 31.20393 | -8.93822 | 19931 ft | 390 kts | 204° |
| 2026-04-25 14:06 | 31.17897 | -8.95062 | 19682 ft | 386 kts | 204° |
| 2026-04-25 14:06 | 31.15457 | -8.96275 | 19449 ft | 384 kts | 204° |
| 2026-04-25 14:06 | 31.12969 | -8.97510 | 19215 ft | 385 kts | 204° |
| 2026-04-25 14:07 | 31.10532 | -8.98720 | 18976 ft | 383 kts | 204° |
| 2026-04-25 14:07 | 31.08071 | -8.99940 | 18738 ft | 381 kts | 204° |
| 2026-04-25 14:07 | 31.05629 | -9.01152 | 18399 ft | 382 kts | 204° |
| 2026-04-25 14:07 | 31.03192 | -9.02359 | 17801 ft | 384 kts | 204° |
| 2026-04-25 14:08 | 31.00749 | -9.03568 | 17273 ft | 379 kts | 204° |
| 2026-04-25 14:08 | 30.98332 | -9.04767 | 16750 ft | 374 kts | 204° |
| 2026-04-25 14:08 | 30.95951 | -9.05951 | 16218 ft | 369 kts | 203° |
| 2026-04-25 14:08 | 30.93616 | -9.07111 | 15705 ft | 365 kts | 203° |
| 2026-04-25 14:09 | 30.91299 | -9.08263 | 15200 ft | 362 kts | 203° |
| 2026-04-25 14:09 | 30.88982 | -9.09413 | 14966 ft | 364 kts | 202° |
| 2026-04-25 14:09 | 30.86652 | -9.10567 | 14796 ft | 363 kts | 202° |
| 2026-04-25 14:09 | 30.85075 | -9.11349 | 14474 ft | 365 kts | 202° |
| 2026-04-25 14:10 | 30.81939 | -9.12903 | 13378 ft | 374 kts | 202° |
| 2026-04-25 14:10 | 30.79545 | -9.14086 | 12568 ft | 378 kts | 202° |
| 2026-04-25 14:10 | 30.77121 | -9.15285 | 11954 ft | 375 kts | 201° |
| 2026-04-25 14:10 | 30.74725 | -9.16470 | 11367 ft | 370 kts | 201° |
| 2026-04-25 14:11 | 30.72398 | -9.17618 | 10828 ft | 366 kts | 201° |
| 2026-04-25 14:11 | 30.70068 | -9.18762 | 10394 ft | 357 kts | 200° |
| 2026-04-25 14:11 | 30.67725 | -9.19445 | 10235 ft | 339 kts | 182° |
| 2026-04-25 14:11 | 30.65446 | -9.19229 | 10108 ft | 321 kts | 165° |
| 2026-04-25 14:12 | 30.63342 | -9.18628 | 9986 ft | 307 kts | 165° |
| 2026-04-25 14:12 | 30.61310 | -9.18050 | 9904 ft | 292 kts | 165° |
| 2026-04-25 14:12 | 30.59371 | -9.17499 | 9576 ft | 282 kts | 165° |
| 2026-04-25 14:12 | 30.57461 | -9.16947 | 9076 ft | 280 kts | 165° |
| 2026-04-25 14:13 | 30.55578 | -9.16400 | 8910 ft | 279 kts | 165° |
| 2026-04-25 14:13 | 30.53697 | -9.15855 | 8859 ft | 283 kts | 165° |
| 2026-04-25 14:13 | 30.51797 | -9.15308 | 8859 ft | 275 kts | 164° |
| 2026-04-25 14:13 | 30.49963 | -9.14781 | 8860 ft | 276 kts | 165° |
| 2026-04-25 14:14 | 30.48058 | -9.14232 | 8858 ft | 283 kts | 164° |
| 2026-04-25 14:14 | 30.46240 | -9.13463 | 8864 ft | 274 kts | 146° |
| 2026-04-25 14:14 | 30.44739 | -9.12062 | 8743 ft | 281 kts | 139° |
| 2026-04-25 14:14 | 30.43287 | -9.10597 | 8370 ft | 280 kts | 139° |
| 2026-04-25 14:15 | 30.41837 | -9.09081 | 8000 ft | 278 kts | 131° |
| 2026-04-25 14:15 | 30.41447 | -9.08511 | 7885 ft | 277 kts | 123° |
| 2026-04-25 14:15 | 30.40760 | -9.04974 | 7331 ft | 274 kts | 89° |
| 2026-04-25 14:15 | 30.40842 | -9.02831 | 7202 ft | 258 kts | 89° |
| 2026-04-25 14:16 | 30.40924 | -9.00824 | 7021 ft | 245 kts | 88° |
| 2026-04-25 14:16 | 30.40994 | -8.98852 | 6703 ft | 244 kts | 88° |
| 2026-04-25 14:16 | 30.40932 | -8.96883 | 6366 ft | 243 kts | 105° |
| 2026-04-25 14:16 | 30.40136 | -8.95185 | 6038 ft | 242 kts | 136° |
| 2026-04-25 14:17 | 30.38710 | -8.94236 | 5888 ft | 244 kts | 167° |
| 2026-04-25 14:17 | 30.37008 | -8.94086 | 5866 ft | 246 kts | 179° |
| 2026-04-25 14:17 | 30.35294 | -8.94053 | 5866 ft | 245 kts | 179° |
| 2026-04-25 14:17 | 30.33641 | -8.94023 | 5865 ft | 234 kts | 179° |
| 2026-04-25 14:18 | 30.32008 | -8.93993 | 5868 ft | 234 kts | 179° |
| 2026-04-25 14:18 | 30.30394 | -8.93959 | 5872 ft | 235 kts | 179° |
| 2026-04-25 14:18 | 30.28761 | -8.93927 | 5871 ft | 234 kts | 179° |
| 2026-04-25 14:18 | 30.27130 | -8.93928 | 5868 ft | 234 kts | 187° |
| 2026-04-25 14:19 | 30.25632 | -8.94619 | 5867 ft | 235 kts | 219° |
| 2026-04-25 14:19 | 30.24669 | -8.96129 | 5871 ft | 236 kts | 251° |
| 2026-04-25 14:19 | 30.24535 | -8.97983 | 5875 ft | 236 kts | 283° |
| 2026-04-25 14:19 | 30.25256 | -8.99687 | 5884 ft | 236 kts | 307° |
| 2026-04-25 14:20 | 30.26226 | -9.01199 | 5879 ft | 236 kts | 307° |
| 2026-04-25 14:20 | 30.26560 | -9.01715 | 5870 ft | 235 kts | 307° |
| 2026-04-25 14:20 | 30.28117 | -9.04274 | 5706 ft | 234 kts | 304° |
| 2026-04-25 14:20 | 30.29010 | -9.05845 | 5552 ft | 231 kts | 304° |
| 2026-04-25 14:21 | 30.29881 | -9.07418 | 5307 ft | 229 kts | 302° |
| 2026-04-25 14:21 | 30.30684 | -9.08982 | 5070 ft | 228 kts | 296° |
| 2026-04-25 14:21 | 30.31038 | -9.10774 | 4737 ft | 230 kts | 275° |
| 2026-04-25 14:21 | 30.31145 | -9.12615 | 4498 ft | 227 kts | 274° |
| 2026-04-25 14:22 | 30.31292 | -9.14411 | 4296 ft | 222 kts | 277° |
| 2026-04-25 14:22 | 30.31454 | -9.16213 | 4053 ft | 230 kts | 275° |
| 2026-04-25 14:22 | 30.31549 | -9.18069 | 3764 ft | 232 kts | 272° |
| 2026-04-25 14:22 | 30.31606 | -9.19951 | 3461 ft | 232 kts | 272° |
| 2026-04-25 14:23 | 30.31664 | -9.21802 | 3172 ft | 231 kts | 271° |
| 2026-04-25 14:23 | 30.31719 | -9.23655 | 2869 ft | 228 kts | 271° |
| 2026-04-25 14:23 | 30.31774 | -9.25480 | 2565 ft | 224 kts | 271° |
| 2026-04-25 14:23 | 30.31827 | -9.27222 | 2292 ft | 214 kts | 270° |
| 2026-04-25 14:24 | 30.31876 | -9.28920 | 2014 ft | 208 kts | 271° |
| 2026-04-25 14:24 | 30.31928 | -9.30574 | 1732 ft | 200 kts | 271° |
| 2026-04-25 14:24 | 30.31979 | -9.32081 | 1479 ft | 177 kts | 269° |
| 2026-04-25 14:24 | 30.32016 | -9.33427 | 1304 ft | 157 kts | 269° |
| 2026-04-25 14:25 | 30.32053 | -9.34633 | 1088 ft | 144 kts | 268° |
| 2026-04-25 14:25 | 30.32100 | -9.35761 | 862 ft | 135 kts | 271° |
| 2026-04-25 14:25 | 30.32158 | -9.36794 | 689 ft | 123 kts | 271° |
| 2026-04-25 14:25 | 30.32169 | -9.37116 | 647 ft | 123 kts | 270° |
| 2026-04-25 14:26 | 30.32208 | -9.38824 | 372 ft | 131 kts | 267° |
| 2026-04-25 14:26 | 30.32233 | -9.39864 | 242 ft | 126 kts | 265° |
| 2026-04-25 14:26 | 30.32252 | -9.40770 | 231 ft | 89 kts | 272° |
| 2026-04-25 14:26 | 30.32264 | -9.41254 | 231 ft | 36 kts | 273° |
| 2026-04-25 14:27 | 30.32270 | -9.41472 | 231 ft | 15 kts | 273° |
| 2026-04-25 14:27 | 30.32332 | -9.41530 | 232 ft | 14 kts | 353° |
| 2026-04-25 14:27 | 30.32385 | -9.41528 | 231 ft | 0 kts | 2° |
| 2026-04-25 14:28 | 30.32386 | -9.41528 | 231 ft | 0 kts | 2° |
| 2026-04-25 14:29 | 30.32388 | -9.41528 | 231 ft | 1 kts | 2° |
| 2026-04-25 14:29 | 30.32407 | -9.41527 | 231 ft | 5 kts | 2° |
| 2026-04-25 14:29 | 30.32453 | -9.41524 | 231 ft | 9 kts | 2° |
| 2026-04-25 14:29 | 30.32528 | -9.41521 | 231 ft | 13 kts | 2° |
| 2026-04-25 14:30 | 30.32632 | -9.41519 | 231 ft | 16 kts | 1° |
| 2026-04-25 14:30 | 30.32811 | -9.41494 | 231 ft | 10 kts | 50° |
| 2026-04-25 14:30 | 30.32818 | -9.41423 | 231 ft | 9 kts | 92° |
| 2026-04-25 14:31 | 30.32816 | -9.41346 | 231 ft | 11 kts | 91° |
| 2026-04-25 14:31 | 30.32813 | -9.41254 | 231 ft | 11 kts | 91° |
| 2026-04-25 14:31 | 30.32811 | -9.41168 | 231 ft | 10 kts | 93° |
| 2026-04-25 14:31 | 30.32810 | -9.41081 | 231 ft | 9 kts | 89° |
| 2026-04-25 14:32 | 30.32810 | -9.41063 | 231 ft | 0 kts | 89° |
| 2026-04-25 14:32 | 30.32811 | -9.41060 | 231 ft | 1 kts | 76° |
| 2026-04-25 14:32 | 30.32818 | -9.41051 | 231 ft | 2 kts | 39° |
| 2026-04-25 14:32 | 30.32842 | -9.41046 | 231 ft | 6 kts | 358° |
| 2026-04-25 14:33 | 30.32884 | -9.41046 | 231 ft | 0 kts | 2° |
| 2026-04-25 14:40 | 30.32174 | -9.37253 | 625 ft | 3 kts | 269° |
| 2026-04-25 14:40 | 30.32198 | -9.38403 | 432 ft | 115 kts | 266° |
| 2026-04-25 14:40 | 30.32228 | -9.39597 | 258 ft | 111 kts | 265° |
| 2026-04-25 14:40 | 30.32250 | -9.40675 | 231 ft | 68 kts | 270° |
| 2026-04-25 14:41 | 30.32257 | -9.40893 | 231 ft | 0 kts | 273° |